createdAt,value
2018-04-14T00:02:15.846Z,80.82
2018-04-14T00:04:41.518Z,80.86
2018-04-14T00:07:07.199Z,80.96
2018-04-14T00:09:32.858Z,81.01
2018-04-14T00:11:58.554Z,81.12
2018-04-14T00:14:24.220Z,81.11
2018-04-14T00:16:49.903Z,80.67
2018-04-14T00:19:15.566Z,80.39
2018-04-14T00:21:41.240Z,80.20
2018-04-14T00:24:06.920Z,79.92
2018-04-14T00:26:32.603Z,79.64
2018-04-14T00:28:58.279Z,79.63
2018-04-14T00:31:24.411Z,79.24
2018-04-14T00:33:50.070Z,79.37
2018-04-14T00:36:15.748Z,79.14
2018-04-14T00:38:41.416Z,78.73
2018-04-14T00:41:07.070Z,78.68
2018-04-14T00:43:32.759Z,78.70
2018-04-14T00:45:58.459Z,78.71
2018-04-14T00:48:24.114Z,78.84
2018-04-14T00:50:50.127Z,78.65
2018-04-14T00:53:21.990Z,78.29
2018-04-14T00:55:47.679Z,78.10
2018-04-14T00:58:13.380Z,78.21
2018-04-14T01:00:39.056Z,78.04
2018-04-14T01:03:04.753Z,78.28
2018-04-14T01:05:30.447Z,78.28
2018-04-14T01:07:56.179Z,78.17
2018-04-14T01:10:21.858Z,77.89
2018-04-14T01:12:47.554Z,77.86
2018-04-14T01:15:13.246Z,77.94
2018-04-14T01:17:38.910Z,77.98
2018-04-14T01:20:04.786Z,77.70
2018-04-14T01:22:30.483Z,77.65
2018-04-14T01:24:56.188Z,77.49
2018-04-14T01:27:21.842Z,77.91
2018-04-14T01:29:47.526Z,77.78
2018-04-14T01:32:13.203Z,78.15
2018-04-14T01:34:39.078Z,78.10
2018-04-14T01:37:04.734Z,78.07
2018-04-14T01:39:30.415Z,77.92
2018-04-14T01:41:56.106Z,78.17
2018-04-14T01:44:21.786Z,78.13
2018-04-14T01:46:47.501Z,78.26
2018-04-14T01:49:13.197Z,78.27
2018-04-14T01:51:38.860Z,78.73
2018-04-14T01:54:04.559Z,78.91
2018-04-14T01:56:30.215Z,78.71
2018-04-14T01:58:55.911Z,78.51
2018-04-14T02:01:21.629Z,78.30
2018-04-14T02:03:47.287Z,78.21
2018-04-14T02:06:12.958Z,78.38
2018-04-14T02:08:38.610Z,78.24
2018-04-14T02:11:04.289Z,77.81
2018-04-14T02:13:29.969Z,77.60
2018-04-14T02:15:55.698Z,77.46
2018-04-14T02:18:21.348Z,77.19
2018-04-14T02:20:47.051Z,77.02
2018-04-14T02:23:12.726Z,76.89
2018-04-14T02:25:38.400Z,76.87
2018-04-14T02:28:04.055Z,76.83
2018-04-14T02:30:29.774Z,77.25
2018-04-14T02:32:56.044Z,77.77
2018-04-14T02:35:21.703Z,77.80
2018-04-14T02:37:47.397Z,77.98
2018-04-14T02:40:13.090Z,78.29
2018-04-14T02:42:38.787Z,78.56
2018-04-14T02:45:04.451Z,78.94
2018-04-14T02:47:30.216Z,78.77
2018-04-14T02:49:55.948Z,78.76
2018-04-14T02:52:21.631Z,78.82
2018-04-14T02:54:47.299Z,78.58
2018-04-14T02:57:13.011Z,78.60
2018-04-14T02:59:38.670Z,79.08
2018-04-14T03:02:04.399Z,78.95
2018-04-14T03:04:30.075Z,78.73
2018-04-14T03:06:55.757Z,78.50
2018-04-14T03:09:21.419Z,78.30
2018-04-14T03:11:47.084Z,78.63
2018-04-14T03:14:12.799Z,78.73
2018-04-14T03:16:38.451Z,78.52
2018-04-14T03:19:04.133Z,78.55
2018-04-14T03:21:29.898Z,78.78
2018-04-14T03:23:55.563Z,78.99
2018-04-14T03:26:21.219Z,78.98
2018-04-14T03:28:46.941Z,78.79
2018-04-14T03:31:12.577Z,78.86
2018-04-14T03:33:38.339Z,78.46
2018-04-14T03:36:04.034Z,78.58
2018-04-14T03:38:29.713Z,78.39
2018-04-14T03:40:55.385Z,78.27
2018-04-14T03:43:21.042Z,78.22
2018-04-14T03:45:46.729Z,78.13
2018-04-14T03:48:12.408Z,77.86
2018-04-14T03:50:38.077Z,78.00
2018-04-14T03:53:03.783Z,78.00
2018-04-14T03:55:29.490Z,77.85
2018-04-14T03:57:55.143Z,77.74
2018-04-14T04:00:21.031Z,77.55
2018-04-14T04:02:46.692Z,77.78
2018-04-14T04:05:12.387Z,77.87
2018-04-14T04:07:38.052Z,78.00
2018-04-14T04:10:03.724Z,77.96
2018-04-14T04:12:29.411Z,78.32
2018-04-14T04:14:55.106Z,78.54
2018-04-14T04:17:20.822Z,78.69
2018-04-14T04:19:52.927Z,78.63
2018-04-14T04:22:24.685Z,78.92
2018-04-14T04:24:56.446Z,78.69
2018-04-14T04:27:22.116Z,78.57
2018-04-14T04:29:47.775Z,78.58
2018-04-14T04:32:13.475Z,78.67
2018-04-14T04:34:39.131Z,78.58
2018-04-14T04:37:04.825Z,78.85
2018-04-14T04:39:30.499Z,79.15
2018-04-14T04:41:56.214Z,79.19
2018-04-14T04:44:21.883Z,79.25
2018-04-14T04:46:47.579Z,79.44
2018-04-14T04:49:13.240Z,79.22
2018-04-14T04:51:38.923Z,79.08
2018-04-14T04:54:04.603Z,79.15
2018-04-14T04:56:30.275Z,79.02
2018-04-14T04:58:55.935Z,79.22
2018-04-14T05:01:21.590Z,79.24
2018-04-14T05:03:47.299Z,79.32
2018-04-14T05:06:12.999Z,79.51
2018-04-14T05:08:38.671Z,79.49
2018-04-14T05:11:04.350Z,79.51
2018-04-14T05:13:30.779Z,79.46
2018-04-14T05:15:56.467Z,79.56
2018-04-14T05:18:22.157Z,79.46
2018-04-14T05:20:47.823Z,79.35
2018-04-14T05:23:13.535Z,79.33
2018-04-14T05:25:39.188Z,79.50
2018-04-14T05:28:04.879Z,79.47
2018-04-14T05:30:30.582Z,79.61
2018-04-14T05:32:56.279Z,79.69
2018-04-14T05:35:21.942Z,79.73
2018-04-14T05:37:47.648Z,79.64
2018-04-14T05:40:13.324Z,79.50
2018-04-14T05:42:39.019Z,79.50
2018-04-14T05:45:04.686Z,79.15
2018-04-14T05:47:30.401Z,78.95
2018-04-14T05:49:56.065Z,79.10
2018-04-14T05:52:21.767Z,78.93
2018-04-14T05:54:47.649Z,78.81
2018-04-14T05:57:13.634Z,78.95
2018-04-14T05:59:39.297Z,78.85
2018-04-14T06:02:05.005Z,78.92
2018-04-14T06:04:30.716Z,79.06
2018-04-14T06:06:56.396Z,78.75
2018-04-14T06:09:22.102Z,78.79
2018-04-14T06:11:47.766Z,78.75
2018-04-14T06:14:13.462Z,78.88
2018-04-14T06:16:39.151Z,78.57
2018-04-14T06:19:04.871Z,78.68
2018-04-14T06:21:30.533Z,78.49
2018-04-14T06:23:56.203Z,78.14
2018-04-14T06:26:21.863Z,78.19
2018-04-14T06:28:47.552Z,78.11
2018-04-14T06:31:13.206Z,78.07
2018-04-14T06:33:38.907Z,78.10
2018-04-14T06:36:04.564Z,77.88
2018-04-14T06:38:30.553Z,77.69
2018-04-14T06:40:56.226Z,77.58
2018-04-14T06:43:21.935Z,77.88
2018-04-14T06:45:47.599Z,77.62
2018-04-14T06:48:13.259Z,77.68
2018-04-14T06:50:38.935Z,77.47
2018-04-14T06:53:04.653Z,77.42
2018-04-14T06:55:30.459Z,77.60
2018-04-14T06:57:56.500Z,78.14
2018-04-14T07:00:22.185Z,77.89
2018-04-14T07:02:47.850Z,77.79
2018-04-14T07:05:13.534Z,77.86
2018-04-14T07:07:39.206Z,77.62
2018-04-14T07:10:04.893Z,77.26
2018-04-14T07:12:30.542Z,77.50
2018-04-14T07:14:56.222Z,77.23
2018-04-14T07:17:21.894Z,77.31
2018-04-14T07:19:47.603Z,77.39
2018-04-14T07:22:13.251Z,77.39
2018-04-14T07:24:38.894Z,77.09
2018-04-14T07:27:04.552Z,77.06
2018-04-14T07:29:30.217Z,77.00
2018-04-14T07:31:56.300Z,77.13
2018-04-14T07:34:21.967Z,76.57
2018-04-14T07:36:47.645Z,76.54
2018-04-14T07:39:13.325Z,76.64
2018-04-14T07:41:39.176Z,76.01
2018-04-14T07:44:04.851Z,76.19
2018-04-14T07:46:30.545Z,76.17
2018-04-14T07:48:56.225Z,76.30
2018-04-14T07:51:21.940Z,76.23
2018-04-14T07:53:47.623Z,75.81
2018-04-14T07:56:13.285Z,76.00
2018-04-14T07:58:38.971Z,75.71
2018-04-14T08:01:04.663Z,75.50
2018-04-14T08:03:30.390Z,75.55
2018-04-14T08:05:56.466Z,75.61
2018-04-14T08:08:22.170Z,75.10
2018-04-14T08:10:47.862Z,74.99
2018-04-14T08:13:13.547Z,75.19
2018-04-14T08:15:39.254Z,75.13
2018-04-14T08:18:04.914Z,75.32
2018-04-14T08:20:30.580Z,75.36
2018-04-14T08:22:56.272Z,75.31
2018-04-14T08:25:21.920Z,75.56
2018-04-14T08:27:47.599Z,75.90
2018-04-14T08:30:13.255Z,76.00
2018-04-14T08:32:38.951Z,75.62
2018-04-14T08:35:04.671Z,75.75
2018-04-14T08:37:30.428Z,75.58
2018-04-14T08:39:56.035Z,75.51
2018-04-14T08:42:21.752Z,75.70
2018-04-14T08:44:47.415Z,75.80
2018-04-14T08:47:13.085Z,76.19
2018-04-14T08:49:38.864Z,76.34
2018-04-14T08:52:04.523Z,76.52
2018-04-14T08:54:30.203Z,76.69
2018-04-14T08:56:55.855Z,76.83
2018-04-14T08:59:21.846Z,76.62
2018-04-14T09:01:47.503Z,76.86
2018-04-14T09:04:13.197Z,76.92
2018-04-14T09:06:38.843Z,76.83
2018-04-14T09:09:04.540Z,76.52
2018-04-14T09:11:30.198Z,76.81
2018-04-14T09:13:55.878Z,76.69
2018-04-14T09:16:21.534Z,76.30
2018-04-14T09:18:47.199Z,76.62
2018-04-14T09:21:12.860Z,76.85
2018-04-14T09:23:38.520Z,77.00
2018-04-14T09:26:04.215Z,76.91
2018-04-14T09:28:29.878Z,76.87
2018-04-14T09:30:55.555Z,76.66
2018-04-14T09:33:21.225Z,76.71
2018-04-14T09:35:46.875Z,76.66
2018-04-14T09:38:12.544Z,76.56
2018-04-14T09:40:38.198Z,76.76
2018-04-14T09:43:03.871Z,76.43
2018-04-14T09:45:29.543Z,76.90
2018-04-14T09:47:55.231Z,77.20
2018-04-14T09:50:20.907Z,77.18
2018-04-14T09:52:46.568Z,77.22
2018-04-14T09:55:12.252Z,77.42
2018-04-14T09:57:37.917Z,77.59
2018-04-14T10:00:03.643Z,77.55
2018-04-14T10:02:30.239Z,77.66
2018-04-14T10:04:55.978Z,77.62
2018-04-14T10:07:21.638Z,77.48
2018-04-14T10:09:47.462Z,77.73
2018-04-14T10:12:13.166Z,77.58
2018-04-14T10:14:38.835Z,77.69
2018-04-14T10:17:04.503Z,77.64
2018-04-14T10:19:30.190Z,77.61
2018-04-14T10:21:55.851Z,77.38
2018-04-14T10:24:21.503Z,77.61
2018-04-14T10:26:47.479Z,77.54
2018-04-14T10:29:13.166Z,77.71
2018-04-14T10:31:38.843Z,77.64
2018-04-14T10:34:04.538Z,77.66
2018-04-14T10:36:30.216Z,77.78
2018-04-14T10:38:55.975Z,77.62
2018-04-14T10:41:21.635Z,77.85
2018-04-14T10:43:47.290Z,77.79
2018-04-14T10:46:13.019Z,77.37
2018-04-14T10:48:38.947Z,77.54
2018-04-14T10:51:04.603Z,77.40
2018-04-14T10:53:30.310Z,76.29
2018-04-14T10:55:55.960Z,76.81
2018-04-14T10:58:21.643Z,76.78
2018-04-14T11:00:47.325Z,76.94
2018-04-14T11:03:12.999Z,76.83
2018-04-14T11:05:38.700Z,77.15
2018-04-14T11:08:04.374Z,77.08
2018-04-14T11:10:30.038Z,77.08
2018-04-14T11:12:55.744Z,76.96
2018-04-14T11:15:21.461Z,77.32
2018-04-14T11:17:47.154Z,77.28
2018-04-14T11:20:12.813Z,77.38
2018-04-14T11:22:38.490Z,77.55
2018-04-14T11:25:04.188Z,77.44
2018-04-14T11:27:29.931Z,77.40
2018-04-14T11:29:55.675Z,77.16
2018-04-14T11:32:21.342Z,77.00
2018-04-14T11:34:47.021Z,76.99
2018-04-14T11:37:12.675Z,76.73
2018-04-14T11:39:38.386Z,76.52
2018-04-14T11:42:04.055Z,76.36
2018-04-14T11:44:29.746Z,75.97
2018-04-14T11:46:55.414Z,75.89
2018-04-14T11:49:21.102Z,76.21
2018-04-14T11:51:46.781Z,76.18
2018-04-14T11:54:12.482Z,76.28
2018-04-14T11:56:38.285Z,76.09
2018-04-14T11:59:04.018Z,76.24
2018-04-14T12:01:29.684Z,76.00
2018-04-14T12:03:56.502Z,75.92
2018-04-14T12:06:22.338Z,76.18
2018-04-14T12:08:48.007Z,75.86
2018-04-14T12:11:13.690Z,75.91
2018-04-14T12:13:39.361Z,76.16
2018-04-14T12:16:05.042Z,75.85
2018-04-14T12:18:30.714Z,76.03
2018-04-14T12:20:56.391Z,75.94
2018-04-14T12:23:22.130Z,76.20
2018-04-14T12:25:47.827Z,76.38
2018-04-14T12:28:13.479Z,76.26
2018-04-14T12:30:39.173Z,76.43
2018-04-14T12:33:04.833Z,76.33
2018-04-14T12:35:30.593Z,76.60
2018-04-14T12:37:58.064Z,76.45
2018-04-14T12:40:23.743Z,76.79
2018-04-14T12:42:49.438Z,76.65
2018-04-14T12:45:15.122Z,76.81
2018-04-14T12:47:40.771Z,76.42
2018-04-14T12:50:06.552Z,76.54
2018-04-14T12:52:32.206Z,76.66
2018-04-14T12:54:57.864Z,76.49
2018-04-14T12:57:23.534Z,76.80
2018-04-14T12:59:49.203Z,76.29
2018-04-14T13:02:14.938Z,76.24
2018-04-14T13:04:40.639Z,76.49
2018-04-14T13:07:06.299Z,75.87
2018-04-14T13:09:31.951Z,75.86
2018-04-14T13:11:57.607Z,76.01
2018-04-14T13:14:23.271Z,76.22
2018-04-14T13:16:49.025Z,76.03
2018-04-14T13:19:14.757Z,76.31
2018-04-14T13:21:40.431Z,76.79
2018-04-14T13:24:06.098Z,76.54
2018-04-14T13:26:31.794Z,76.67
2018-04-14T13:28:57.456Z,76.79
2018-04-14T13:31:23.158Z,77.24
2018-04-14T13:33:48.829Z,77.49
2018-04-14T13:36:14.567Z,77.54
2018-04-14T13:38:40.270Z,77.72
2018-04-14T13:41:05.982Z,77.62
2018-04-14T13:43:31.719Z,77.68
2018-04-14T13:45:57.563Z,77.63
2018-04-14T13:48:23.247Z,77.59
2018-04-14T13:50:48.916Z,77.56
2018-04-14T13:53:14.603Z,77.61
2018-04-14T13:55:40.262Z,77.75
2018-04-14T13:58:05.935Z,77.82
2018-04-14T14:00:31.599Z,77.67
2018-04-14T14:02:57.275Z,77.93
2018-04-14T14:05:22.971Z,77.91
2018-04-14T14:07:48.644Z,77.69
2018-04-14T14:10:14.311Z,77.65
2018-04-14T14:12:39.974Z,77.85
2018-04-14T14:15:05.647Z,77.90
2018-04-14T14:17:31.347Z,78.13
2018-04-14T14:19:57.018Z,78.14
2018-04-14T14:22:22.681Z,78.30
2018-04-14T14:24:48.614Z,78.40
2018-04-14T14:27:14.312Z,78.40
2018-04-14T14:29:40.023Z,78.98
2018-04-14T14:32:05.759Z,78.89
2018-04-14T14:34:31.423Z,79.27
2018-04-14T14:36:57.125Z,79.36
2018-04-14T14:39:22.790Z,79.46
2018-04-14T14:41:48.507Z,79.57
2018-04-14T14:44:14.189Z,79.67
2018-04-14T14:46:39.867Z,79.73
2018-04-14T14:49:05.545Z,79.81
2018-04-14T14:51:31.266Z,79.27
2018-04-14T14:53:56.935Z,79.42
2018-04-14T14:56:22.652Z,79.46
2018-04-14T14:58:48.331Z,79.34
2018-04-14T15:01:14.115Z,79.06
2018-04-14T15:03:39.771Z,79.03
2018-04-14T15:06:05.437Z,79.24
2018-04-14T15:08:31.100Z,79.17
2018-04-14T15:10:56.799Z,79.06
2018-04-14T15:13:22.464Z,79.01
2018-04-14T15:15:48.152Z,78.98
2018-04-14T15:18:13.819Z,79.26
2018-04-14T15:20:39.497Z,79.14
2018-04-14T15:23:05.147Z,78.97
2018-04-14T15:25:30.885Z,79.08
2018-04-14T15:27:56.541Z,79.02
2018-04-14T15:30:22.211Z,78.89
2018-04-14T15:32:47.875Z,78.27
2018-04-14T15:35:13.555Z,78.50
2018-04-14T15:37:39.234Z,78.33
2018-04-14T15:40:04.894Z,78.32
2018-04-14T15:42:30.580Z,78.42
2018-04-14T15:44:56.241Z,78.39
2018-04-14T15:47:21.962Z,77.98
2018-04-14T15:49:47.638Z,77.83
2018-04-14T15:52:13.484Z,78.15
2018-04-14T15:54:39.151Z,77.86
2018-04-14T15:57:04.857Z,78.03
2018-04-14T15:59:30.520Z,77.84
2018-04-14T16:01:56.356Z,77.66
2018-04-14T16:04:22.032Z,77.76
2018-04-14T16:06:47.737Z,77.72
2018-04-14T16:09:13.404Z,77.52
2018-04-14T16:11:39.062Z,77.63
2018-04-14T16:14:04.716Z,77.33
2018-04-14T16:16:30.386Z,77.21
2018-04-14T16:18:56.078Z,77.05
2018-04-14T16:21:21.791Z,77.02
2018-04-14T16:23:47.472Z,77.14
2018-04-14T16:26:13.360Z,76.90
2018-04-14T16:28:39.093Z,76.98
2018-04-14T16:31:04.734Z,76.92
2018-04-14T16:33:30.403Z,76.63
2018-04-14T16:35:56.071Z,76.58
2018-04-14T16:38:21.714Z,76.40
2018-04-14T16:40:47.373Z,76.44
2018-04-14T16:51:30.111Z,76.53
2018-04-14T16:53:55.770Z,76.76
2018-04-14T16:56:21.462Z,76.89
2018-04-14T16:58:47.120Z,76.93
2018-04-14T17:01:13.071Z,76.84
2018-04-14T17:03:38.786Z,77.02
2018-04-14T17:06:04.662Z,77.18
2018-04-14T17:08:30.574Z,77.15
2018-04-14T17:10:56.232Z,76.88
2018-04-14T17:13:21.915Z,76.84
2018-04-14T17:15:47.599Z,77.00
2018-04-14T17:18:13.272Z,77.35
2018-04-14T17:20:38.974Z,77.17
2018-04-14T17:23:04.663Z,77.05
2018-04-14T17:25:30.343Z,76.87
2018-04-14T17:27:56.010Z,76.70
2018-04-14T17:30:21.727Z,76.52
2018-04-14T17:32:48.291Z,76.52
2018-04-14T17:35:14.007Z,76.35
2018-04-14T17:37:39.666Z,76.66
2018-04-14T17:40:05.630Z,77.02
2018-04-14T17:42:31.291Z,77.18
2018-04-14T17:44:56.971Z,77.31
2018-04-14T17:47:22.638Z,77.43
2018-04-14T17:49:48.332Z,77.28
2018-04-14T17:52:14.007Z,77.38
2018-04-14T17:54:39.688Z,77.57
2018-04-14T17:57:05.410Z,78.08
2018-04-14T17:59:31.062Z,78.35
2018-04-14T18:01:56.780Z,78.60
2018-04-14T18:04:22.466Z,78.92
2018-04-14T18:06:48.204Z,78.96
2018-04-14T18:09:13.875Z,78.96
2018-04-14T18:11:39.558Z,78.91
2018-04-14T18:14:05.230Z,79.05
2018-04-14T18:16:30.908Z,78.98
2018-04-14T18:18:56.588Z,78.76
2018-04-14T18:21:22.277Z,78.71
2018-04-14T18:23:47.982Z,78.86
2018-04-14T18:26:13.677Z,79.06
2018-04-14T18:28:39.346Z,79.06
2018-04-14T18:31:05.022Z,79.14
2018-04-14T18:33:30.736Z,79.31
2018-04-14T18:35:56.407Z,79.30
2018-04-14T18:38:22.112Z,79.46
2018-04-14T18:40:47.783Z,79.46
2018-04-14T18:43:13.480Z,79.54
2018-04-14T18:45:39.157Z,79.54
2018-04-14T18:48:04.870Z,79.55
2018-04-14T18:50:30.680Z,79.63
2018-04-14T18:52:56.363Z,79.76
2018-04-14T18:55:22.035Z,79.90
2018-04-14T18:57:47.706Z,79.90
2018-04-14T19:00:13.358Z,79.96
2018-04-14T19:02:39.034Z,79.99
2018-04-14T19:05:04.691Z,79.83
2018-04-14T19:07:30.379Z,79.70
2018-04-14T19:09:56.038Z,79.68
2018-04-14T19:12:21.713Z,79.74
2018-04-14T19:14:47.370Z,79.85
2018-04-14T19:17:13.027Z,79.95
2018-04-14T19:19:38.813Z,79.97
2018-04-14T19:22:04.502Z,80.01
2018-04-14T19:24:30.260Z,80.07
2018-04-14T19:26:55.912Z,80.10
2018-04-14T19:29:21.578Z,79.98
2018-04-14T19:31:47.583Z,79.82
2018-04-14T19:34:13.292Z,79.79
2018-04-14T19:36:38.946Z,79.68
2018-04-14T19:39:04.645Z,79.70
2018-04-14T19:41:30.336Z,79.76
2018-04-14T19:43:56.037Z,79.61
2018-04-14T19:46:21.691Z,79.60
2018-04-14T19:48:47.688Z,79.60
2018-04-14T19:51:13.407Z,79.51
2018-04-14T19:53:39.083Z,79.69
2018-04-14T19:56:04.761Z,79.73
2018-04-14T19:58:30.440Z,79.83
2018-04-14T20:00:56.106Z,79.82
2018-04-14T20:03:21.767Z,79.72
2018-04-14T20:05:47.814Z,79.67
2018-04-14T20:08:13.483Z,79.76
2018-04-14T20:10:39.145Z,79.85
2018-04-14T20:13:04.814Z,79.95
2018-04-14T20:15:30.543Z,80.15
2018-04-14T20:17:56.199Z,80.26
2018-04-14T20:20:21.886Z,80.28
2018-04-14T20:22:47.651Z,80.35
2018-04-14T20:25:13.380Z,80.46
2018-04-14T20:27:39.058Z,80.49
2018-04-14T20:30:04.752Z,80.65
2018-04-14T20:32:30.414Z,80.50
2018-04-14T20:34:56.107Z,80.35
2018-04-14T20:37:21.762Z,80.35
2018-04-14T20:39:47.433Z,80.21
2018-04-14T20:42:13.116Z,80.29
2018-04-14T20:44:38.791Z,80.20
2018-04-14T20:47:04.473Z,80.10
2018-04-14T20:49:30.143Z,80.08
2018-04-14T20:51:55.834Z,80.23
2018-04-14T20:54:21.510Z,80.43
2018-04-14T20:56:47.190Z,80.42
2018-04-14T20:59:12.865Z,80.13
2018-04-14T21:01:38.594Z,80.20
2018-04-14T21:04:04.267Z,80.22
2018-04-14T21:06:29.934Z,80.26
2018-04-14T21:08:55.610Z,80.00
2018-04-14T21:11:21.287Z,79.66
2018-04-14T21:13:46.978Z,79.63
2018-04-14T21:16:12.679Z,79.82
2018-04-14T21:18:38.411Z,79.92
2018-04-14T21:21:04.090Z,80.05
2018-04-14T21:23:29.808Z,80.02
2018-04-14T21:25:55.504Z,79.95
2018-04-14T21:28:21.219Z,79.84
2018-04-14T21:30:46.913Z,79.73
2018-04-14T21:33:12.608Z,79.59
2018-04-14T21:35:38.304Z,79.73
2018-04-14T21:38:04.007Z,79.86
2018-04-14T21:40:29.747Z,79.91
2018-04-14T21:42:55.438Z,79.92
2018-04-14T21:45:21.109Z,79.81
2018-04-14T21:47:46.802Z,79.90
2018-04-14T21:50:12.491Z,80.06
2018-04-14T21:52:38.165Z,80.22
2018-04-14T21:55:03.843Z,80.24
2018-04-14T21:57:29.532Z,80.21
2018-04-14T21:59:55.195Z,80.29
2018-04-14T22:02:20.866Z,80.25
2018-04-14T22:04:46.567Z,80.18
2018-04-14T22:07:12.448Z,80.33
2018-04-14T22:09:38.151Z,80.40
2018-04-14T22:12:03.865Z,80.41
2018-04-14T22:14:31.547Z,80.40
2018-04-14T22:16:57.315Z,80.43
2018-04-14T22:19:23.035Z,80.39
2018-04-14T22:21:48.696Z,80.26
2018-04-14T22:24:14.392Z,80.18
2018-04-14T22:26:40.080Z,80.34
2018-04-14T22:29:05.796Z,80.36
2018-04-14T22:31:31.463Z,80.44
2018-04-14T22:33:57.167Z,80.42
2018-04-14T22:36:22.838Z,80.59
2018-04-14T22:38:48.507Z,80.74
2018-04-14T22:41:14.167Z,80.78
2018-04-14T22:43:39.853Z,80.70
2018-04-14T22:46:05.525Z,80.49
2018-04-14T22:48:31.186Z,80.46
2018-04-14T22:50:57.135Z,80.43
2018-04-14T22:53:22.804Z,80.35
2018-04-14T22:55:48.506Z,80.46
2018-04-14T22:58:14.167Z,80.63
2018-04-14T23:00:39.876Z,80.70
2018-04-14T23:03:05.543Z,80.73
2018-04-14T23:05:31.327Z,80.59
2018-04-14T23:07:57.036Z,80.47
2018-04-14T23:10:22.698Z,80.49
2018-04-14T23:12:48.399Z,80.51
2018-04-14T23:15:14.206Z,80.49
2018-04-14T23:17:39.854Z,80.44
2018-04-14T23:20:05.523Z,80.35
2018-04-14T23:22:31.195Z,80.31
2018-04-14T23:24:56.866Z,80.37
2018-04-14T23:27:22.589Z,80.34
2018-04-14T23:29:48.255Z,80.50
2018-04-14T23:32:13.953Z,80.39
2018-04-14T23:34:39.654Z,80.32
2018-04-14T23:37:05.316Z,80.27
2018-04-14T23:39:31.016Z,80.23
2018-04-14T23:41:56.683Z,80.24
2018-04-14T23:44:22.360Z,80.15
2018-04-14T23:55:00.362Z,80.15
